createdAt,value
2023-03-06T00:00:40.114Z,100174.81
2023-03-06T00:03:07.939Z,100180.72
2023-03-06T00:05:35.459Z,100174.59
2023-03-06T00:08:03.837Z,100169.41
2023-03-06T00:10:32.323Z,100176.31
2023-03-06T00:13:05.876Z,100175.47
2023-03-06T00:15:33.715Z,100172.81
2023-03-06T00:18:04.294Z,100167.59
2023-03-06T00:20:32.557Z,100173.47
2023-03-06T00:23:02.086Z,100171.03
2023-03-06T00:25:29.698Z,100166.75
2023-03-06T00:27:57.493Z,100165.00
2023-03-06T00:30:25.621Z,100162.41
2023-03-06T00:32:53.620Z,100154.72
2023-03-06T00:35:21.365Z,100155.47
2023-03-06T00:37:49.302Z,100150.25
2023-03-06T00:40:19.569Z,100157.22
2023-03-06T00:42:48.008Z,100153.69
2023-03-06T00:45:16.095Z,100153.72
2023-03-06T00:47:43.828Z,100153.88
2023-03-06T00:50:11.977Z,100150.38
2023-03-06T00:52:41.996Z,100149.41
2023-03-06T00:55:10.702Z,100144.09
2023-03-06T00:57:38.302Z,100140.75
2023-03-06T01:00:07.335Z,100151.22
2023-03-06T01:02:35.187Z,100144.38
2023-03-06T01:05:02.958Z,100148.75
2023-03-06T01:07:34.136Z,100145.28
2023-03-06T01:10:01.771Z,100139.13
2023-03-06T01:12:29.370Z,100139.97
2023-03-06T01:14:58.055Z,100133.13
2023-03-06T01:17:25.737Z,100134.97
2023-03-06T01:19:53.283Z,100127.25
2023-03-06T01:22:21.175Z,100123.72
2023-03-06T01:24:48.704Z,100129.75
2023-03-06T01:27:16.317Z,100120.31
2023-03-06T01:29:44.350Z,100116.03
2023-03-06T01:32:11.953Z,100120.44
2023-03-06T01:34:39.484Z,100111.78
2023-03-06T01:37:07.263Z,100115.00
2023-03-06T01:39:34.849Z,100115.72
2023-03-06T01:42:02.579Z,100108.69
2023-03-06T01:44:30.638Z,100106.16
2023-03-06T01:46:58.247Z,100110.72
2023-03-06T01:49:37.893Z,100108.28
2023-03-06T01:52:12.092Z,100104.06
2023-03-06T01:54:44.430Z,100103.94
2023-03-06T01:57:20.008Z,100096.28
2023-03-06T01:59:53.042Z,100083.50
2023-03-06T02:02:21.094Z,100093.78
2023-03-06T02:04:48.936Z,100093.56
2023-03-06T02:07:19.506Z,100085.66
2023-03-06T02:09:47.033Z,100088.53
2023-03-06T02:12:19.075Z,100087.84
2023-03-06T02:14:47.430Z,100079.81
2023-03-06T02:17:17.527Z,100082.28
2023-03-06T02:20:12.547Z,100083.91
2023-03-06T02:22:59.779Z,100080.87
2023-03-06T02:25:33.697Z,100080.00
2023-03-06T02:28:01.907Z,100077.16
2023-03-06T02:30:30.876Z,100078.75
2023-03-06T02:32:58.839Z,100068.59
2023-03-06T02:35:30.207Z,100071.72
2023-03-06T02:37:59.624Z,100081.94
2023-03-06T02:40:27.784Z,100072.25
2023-03-06T02:42:57.812Z,100069.75
2023-03-06T02:45:38.611Z,100070.03
2023-03-06T02:48:07.167Z,100076.78
2023-03-06T02:50:34.779Z,100071.72
2023-03-06T02:53:02.323Z,100076.19
2023-03-06T02:55:31.719Z,100073.84
2023-03-06T02:58:00.331Z,100081.75
2023-03-06T03:00:29.056Z,100090.31
2023-03-06T03:02:56.945Z,100088.63
2023-03-06T03:05:24.843Z,100080.00
2023-03-06T03:07:53.242Z,100082.62
2023-03-06T03:10:21.198Z,100088.56
2023-03-06T03:12:49.206Z,100087.59
2023-03-06T03:15:17.057Z,100087.59
2023-03-06T03:17:44.924Z,100088.56
2023-03-06T03:20:14.748Z,100074.91
2023-03-06T03:22:42.454Z,100081.63
2023-03-06T03:25:10.209Z,100083.38
2023-03-06T03:27:37.780Z,100089.34
2023-03-06T03:30:06.092Z,100075.59
2023-03-06T03:32:34.122Z,100087.53
2023-03-06T03:35:01.942Z,100078.00
2023-03-06T03:37:30.922Z,100066.53
2023-03-06T03:39:59.567Z,100057.78
2023-03-06T03:42:27.208Z,100054.31
2023-03-06T03:44:54.926Z,100044.34
2023-03-06T03:47:23.004Z,100055.09
2023-03-06T03:49:51.325Z,100052.38
2023-03-06T03:52:19.687Z,100043.91
2023-03-06T03:54:47.627Z,100049.28
2023-03-06T03:57:15.151Z,100044.81
2023-03-06T03:59:43.097Z,100043.84
2023-03-06T04:02:11.674Z,100041.25
2023-03-06T04:04:39.991Z,100047.06
2023-03-06T04:07:08.229Z,100045.53
2023-03-06T04:09:36.975Z,100047.28
2023-03-06T04:12:05.640Z,100047.59
2023-03-06T04:14:34.442Z,100043.16
2023-03-06T04:17:02.237Z,100048.41
2023-03-06T04:19:30.177Z,100044.91
2023-03-06T04:21:58.469Z,100044.81
2023-03-06T04:24:26.430Z,100042.31
2023-03-06T04:26:54.322Z,100031.88
2023-03-06T04:29:21.816Z,100028.44
2023-03-06T04:31:49.947Z,100029.22
2023-03-06T04:34:18.189Z,100035.47
2023-03-06T04:36:46.292Z,100035.75
2023-03-06T04:39:14.754Z,100032.44
2023-03-06T04:41:42.989Z,100036.78
2023-03-06T04:44:10.677Z,100019.69
2023-03-06T04:46:38.208Z,100025.62
2023-03-06T04:49:07.019Z,100023.81
2023-03-06T04:51:36.892Z,100028.16
2023-03-06T04:54:04.729Z,100026.75
2023-03-06T04:56:34.487Z,100029.66
2023-03-06T04:59:03.269Z,100033.84
2023-03-06T05:01:30.854Z,100020.09
2023-03-06T05:03:58.641Z,100024.31
2023-03-06T05:06:26.224Z,100012.41
2023-03-06T05:08:53.918Z,100015.19
2023-03-06T05:11:21.737Z,100019.38
2023-03-06T05:13:49.652Z,100014.91
2023-03-06T05:16:17.619Z,100018.38
2023-03-06T05:18:45.442Z,100017.53
2023-03-06T05:21:13.417Z,100021.81
2023-03-06T05:23:41.224Z,100019.94
2023-03-06T05:26:10.602Z,100018.94
2023-03-06T05:28:38.452Z,100014.56
2023-03-06T05:31:07.333Z,100018.78
2023-03-06T05:33:35.722Z,100020.53
2023-03-06T05:36:03.986Z,100029.53
2023-03-06T05:38:32.247Z,100034.50
2023-03-06T05:41:00.200Z,100024.19
2023-03-06T05:43:27.742Z,100032.69
2023-03-06T05:46:03.212Z,100035.25
2023-03-06T05:48:31.782Z,100032.66
2023-03-06T05:51:00.387Z,100035.94
2023-03-06T05:53:29.307Z,100036.81
2023-03-06T05:55:57.688Z,100017.75
2023-03-06T05:58:25.984Z,100033.16
2023-03-06T06:00:53.948Z,100033.91
2023-03-06T06:03:22.278Z,100031.94
2023-03-06T06:05:50.297Z,100031.69
2023-03-06T06:08:17.865Z,100022.81
2023-03-06T06:10:45.679Z,100024.28
2023-03-06T06:13:13.235Z,100030.94
2023-03-06T06:15:40.778Z,100030.28
2023-03-06T06:18:08.722Z,100026.09
2023-03-06T06:20:37.562Z,100025.38
2023-03-06T06:23:05.211Z,100022.03
2023-03-06T06:25:33.609Z,100014.06
2023-03-06T06:28:01.178Z,100004.94
2023-03-06T06:30:28.793Z,99999.88
2023-03-06T06:32:56.740Z,100007.75
2023-03-06T06:35:24.423Z,100004.25
2023-03-06T06:37:52.614Z,99991.34
2023-03-06T06:40:22.905Z,99996.50
2023-03-06T06:42:50.515Z,99995.66
2023-03-06T06:45:18.206Z,99994.78
2023-03-06T06:47:49.534Z,99996.53
2023-03-06T06:50:17.140Z,100002.56
2023-03-06T06:52:44.752Z,100006.19
2023-03-06T06:55:13.184Z,100011.28
2023-03-06T06:57:42.147Z,100017.97
2023-03-06T07:00:13.493Z,100020.69
2023-03-06T07:02:41.725Z,100022.97
2023-03-06T07:05:09.786Z,100019.56
2023-03-06T07:07:38.202Z,100027.00
2023-03-06T07:10:14.707Z,100030.28
2023-03-06T07:12:43.324Z,100025.75
2023-03-06T07:15:14.128Z,100030.03
2023-03-06T07:17:41.850Z,100025.38
2023-03-06T07:20:10.644Z,100030.37
2023-03-06T07:22:50.393Z,100018.22
2023-03-06T07:25:19.292Z,100015.53
2023-03-06T07:27:53.289Z,100022.44
2023-03-06T07:30:23.307Z,100017.81
2023-03-06T07:32:58.101Z,100024.63
2023-03-06T07:35:26.467Z,100021.09
2023-03-06T07:37:54.500Z,100024.34
2023-03-06T07:40:23.835Z,100019.06
2023-03-06T07:42:54.079Z,100028.34
2023-03-06T07:45:25.158Z,100023.91
2023-03-06T07:47:53.739Z,100017.47
2023-03-06T07:50:21.911Z,100030.25
2023-03-06T07:52:50.870Z,100017.00
2023-03-06T07:55:18.653Z,100024.47
2023-03-06T07:57:46.279Z,100020.00
2023-03-06T08:00:15.739Z,100023.09
2023-03-06T08:02:44.139Z,100028.75
2023-03-06T08:05:14.857Z,100040.53
2023-03-06T08:07:44.113Z,100031.53
2023-03-06T08:10:15.989Z,100034.16
2023-03-06T08:12:43.726Z,100036.84
2023-03-06T08:15:12.131Z,100040.16
2023-03-06T08:17:40.811Z,100033.66
2023-03-06T08:20:10.487Z,100042.25
2023-03-06T08:22:38.450Z,100034.47
2023-03-06T08:25:06.887Z,100043.78
2023-03-06T08:27:34.960Z,100043.25
2023-03-06T08:30:03.151Z,100041.34
2023-03-06T08:32:35.352Z,100044.03
2023-03-06T08:35:04.711Z,100041.03
2023-03-06T08:37:32.580Z,100043.34
2023-03-06T08:40:00.157Z,100041.47
2023-03-06T08:42:27.738Z,100045.66
2023-03-06T08:44:55.578Z,100041.41
2023-03-06T08:47:23.124Z,100035.38
2023-03-06T08:49:50.823Z,100031.44
2023-03-06T08:52:19.913Z,100037.09
2023-03-06T08:54:47.455Z,100031.97
2023-03-06T08:57:15.001Z,100037.63
2023-03-06T08:59:42.942Z,100043.87
2023-03-06T09:02:15.293Z,100043.78
2023-03-06T09:04:43.480Z,100033.34
2023-03-06T09:07:11.174Z,100036.16
2023-03-06T09:09:38.826Z,100027.66
2023-03-06T09:12:07.246Z,100030.34
2023-03-06T09:14:34.778Z,100026.00
2023-03-06T09:17:02.284Z,100016.34
2023-03-06T09:19:30.139Z,100025.00
2023-03-06T09:21:59.680Z,100021.66
2023-03-06T09:24:28.032Z,100023.37
2023-03-06T09:26:55.782Z,100025.59
2023-03-06T09:29:23.363Z,100014.94
2023-03-06T09:31:50.998Z,100022.47
2023-03-06T09:34:19.634Z,100019.94
2023-03-06T09:36:56.547Z,100018.59
2023-03-06T09:39:26.271Z,100025.00
2023-03-06T09:41:54.696Z,100014.53
2023-03-06T09:44:28.944Z,100015.12
2023-03-06T09:46:59.813Z,100012.28
2023-03-06T09:49:49.021Z,100011.25
2023-03-06T09:52:47.642Z,99995.91
2023-03-06T09:55:18.886Z,100000.19
2023-03-06T09:58:00.711Z,99996.47
2023-03-06T10:00:30.304Z,99982.72
2023-03-06T10:03:15.123Z,99984.00
2023-03-06T10:05:47.588Z,99973.13
2023-03-06T10:08:25.944Z,99982.59
2023-03-06T10:11:06.605Z,99973.47
2023-03-06T10:13:44.004Z,99975.75
2023-03-06T10:16:21.925Z,99956.16
2023-03-06T10:18:50.706Z,99954.78
2023-03-06T10:21:57.400Z,99953.53
2023-03-06T10:25:02.629Z,99943.22
2023-03-06T10:27:59.533Z,99939.75
2023-03-06T10:30:52.840Z,99946.09
2023-03-06T10:33:42.097Z,99943.81
2023-03-06T10:36:15.333Z,99938.63
2023-03-06T10:38:44.931Z,99932.13
2023-03-06T10:41:12.647Z,99933.22
2023-03-06T10:43:45.020Z,99926.00
2023-03-06T10:46:14.709Z,99909.50
2023-03-06T10:48:42.864Z,99906.91
2023-03-06T10:51:19.521Z,99901.75
2023-03-06T10:53:53.564Z,99903.34
2023-03-06T10:56:28.581Z,99892.88
2023-03-06T10:59:17.153Z,99891.91
2023-03-06T11:01:47.383Z,99876.75
2023-03-06T11:04:16.334Z,99878.25
2023-03-06T11:06:43.864Z,99874.84
2023-03-06T11:09:29.466Z,99867.97
2023-03-06T11:12:27.423Z,99867.81
2023-03-06T11:15:08.352Z,99854.19
2023-03-06T11:17:40.917Z,99855.59
2023-03-06T11:20:14.954Z,99839.66
2023-03-06T11:22:49.086Z,99842.59
2023-03-06T11:25:21.825Z,99835.38
2023-03-06T11:27:56.677Z,99831.03
2023-03-06T11:30:28.983Z,99830.00
2023-03-06T11:33:04.093Z,99828.25
2023-03-06T11:35:41.471Z,99818.53
2023-03-06T11:38:18.906Z,99817.31
2023-03-06T11:40:55.002Z,99824.47
2023-03-06T11:44:03.597Z,99812.47
2023-03-06T11:46:41.077Z,99813.59
2023-03-06T11:49:32.258Z,99807.94
2023-03-06T11:52:13.069Z,99803.59
2023-03-06T11:54:40.911Z,99790.66
2023-03-06T11:57:15.789Z,99792.19
2023-03-06T12:00:18.847Z,99793.19
2023-03-06T12:03:09.463Z,99774.44
2023-03-06T12:05:47.552Z,99777.06
2023-03-06T12:08:54.434Z,99774.69
2023-03-06T12:11:42.764Z,99769.22
2023-03-06T12:14:37.118Z,99763.91
2023-03-06T12:17:40.898Z,99760.22
2023-03-06T12:20:36.049Z,99763.91
2023-03-06T12:23:23.506Z,99763.34
2023-03-06T12:25:54.617Z,99751.69
2023-03-06T12:28:25.143Z,99749.44
2023-03-06T12:31:17.988Z,99746.31
2023-03-06T12:34:10.709Z,99744.50
2023-03-06T12:36:55.066Z,99739.19
2023-03-06T12:39:37.848Z,99722.62
2023-03-06T12:42:23.873Z,99736.22
2023-03-06T12:45:17.281Z,99721.72
2023-03-06T12:47:51.474Z,99716.00
2023-03-06T12:50:24.448Z,99725.22
2023-03-06T12:52:54.209Z,99718.59
2023-03-06T12:55:36.848Z,99710.06
2023-03-06T12:58:29.214Z,99715.88
2023-03-06T13:01:06.081Z,99703.66
2023-03-06T13:04:01.438Z,99686.59
2023-03-06T13:06:50.736Z,99690.91
2023-03-06T13:09:58.897Z,99687.53
2023-03-06T13:12:47.572Z,99685.88
2023-03-06T13:15:31.643Z,99685.44
2023-03-06T13:17:59.709Z,99681.69
2023-03-06T13:20:35.366Z,99681.91
2023-03-06T13:23:42.906Z,99681.78
2023-03-06T13:26:24.433Z,99681.78
2023-03-06T13:28:54.156Z,99670.66
2023-03-06T13:31:27.934Z,99657.59
2023-03-06T13:34:20.718Z,99666.84
2023-03-06T13:36:48.709Z,99655.63
2023-03-06T13:39:16.620Z,99663.47
2023-03-06T13:41:54.971Z,99660.38
2023-03-06T13:44:43.224Z,99664.63
2023-03-06T13:50:47.750Z,99664.69
2023-03-06T13:53:18.529Z,99667.84
2023-03-06T13:55:55.292Z,99664.75
2023-03-06T13:58:41.790Z,99662.50
2023-03-06T14:01:26.269Z,99650.37
2023-03-06T14:04:21.976Z,99648.03
2023-03-06T14:06:53.704Z,99642.87
2023-03-06T14:09:43.889Z,99630.38
2023-03-06T14:12:24.725Z,99622.69
2023-03-06T14:14:58.502Z,99624.53
2023-03-06T14:17:30.545Z,99619.56
2023-03-06T14:20:03.277Z,99623.22
2023-03-06T14:22:31.358Z,99624.81
2023-03-06T14:25:08.125Z,99624.38
2023-03-06T14:27:49.636Z,99620.03
2023-03-06T14:30:21.073Z,99626.41
2023-03-06T14:32:53.439Z,99620.03
2023-03-06T14:35:21.359Z,99620.56
2023-03-06T14:37:53.199Z,99623.03
2023-03-06T14:40:36.072Z,99618.25
2023-03-06T14:43:33.207Z,99623.78
2023-03-06T14:46:03.722Z,99613.84
2023-03-06T14:48:45.593Z,99618.16
2023-03-06T14:51:21.987Z,99622.06
2023-03-06T14:53:50.909Z,99630.47
2023-03-06T14:56:23.966Z,99622.66
2023-03-06T14:59:01.711Z,99626.44
2023-03-06T15:01:48.264Z,99627.34
2023-03-06T15:04:27.453Z,99619.59
2023-03-06T15:06:56.672Z,99638.34
2023-03-06T15:09:27.726Z,99653.81
2023-03-06T15:12:03.097Z,99651.03
2023-03-06T15:14:35.194Z,99655.31
2023-03-06T15:17:18.410Z,99653.44
2023-03-06T15:19:48.650Z,99657.06
2023-03-06T15:22:38.822Z,99654.28
2023-03-06T15:25:31.990Z,99660.97
2023-03-06T15:28:02.112Z,99669.97
2023-03-06T15:30:32.846Z,99668.06
2023-03-06T15:33:18.079Z,99676.22
2023-03-06T15:35:57.162Z,99677.44
2023-03-06T15:38:44.325Z,99681.97
2023-03-06T15:41:30.901Z,99679.59
2023-03-06T15:43:59.977Z,99672.78
2023-03-06T15:46:28.372Z,99670.78
2023-03-06T15:49:04.321Z,99670.78
2023-03-06T15:51:33.103Z,99668.06
2023-03-06T15:54:11.322Z,99660.59
2023-03-06T15:56:45.088Z,99646.62
2023-03-06T15:59:19.440Z,99635.47
2023-03-06T16:01:47.896Z,99632.31
2023-03-06T16:04:17.237Z,99641.31
2023-03-06T16:06:45.904Z,99618.94
2023-03-06T16:09:13.879Z,99617.09
2023-03-06T16:11:44.843Z,99613.25
2023-03-06T16:14:23.932Z,99620.41
2023-03-06T16:16:54.255Z,99623.78
2023-03-06T16:19:26.401Z,99618.75
2023-03-06T16:21:56.158Z,99621.00
2023-03-06T16:24:24.830Z,99623.12
2023-03-06T16:26:53.580Z,99626.16
2023-03-06T16:29:23.892Z,99620.75
2023-03-06T16:31:51.908Z,99629.41
2023-03-06T16:34:19.854Z,99630.34
2023-03-06T16:36:49.057Z,99630.03
2023-03-06T16:39:19.129Z,99631.69
2023-03-06T16:41:47.199Z,99623.44
2023-03-06T16:44:15.037Z,99640.06
2023-03-06T16:46:47.713Z,99642.50
2023-03-06T16:49:22.222Z,99641.41
2023-03-06T16:51:50.224Z,99643.53
2023-03-06T16:54:18.385Z,99635.47
2023-03-06T16:56:46.925Z,99646.50
2023-03-06T16:59:14.808Z,99652.56
2023-03-06T17:01:45.439Z,99641.25
2023-03-06T17:04:13.175Z,99642.69
2023-03-06T17:06:41.958Z,99656.88
2023-03-06T17:09:11.096Z,99659.00
2023-03-06T17:11:39.317Z,99646.41
2023-03-06T17:14:07.070Z,99641.19
2023-03-06T17:16:37.095Z,99646.62
2023-03-06T17:19:04.946Z,99653.84
2023-03-06T17:21:35.351Z,99659.47
2023-03-06T17:24:10.245Z,99656.88
2023-03-06T17:26:38.812Z,99654.25
2023-03-06T17:29:07.249Z,99657.16
2023-03-06T17:31:35.119Z,99660.75
2023-03-06T17:34:03.129Z,99657.78
2023-03-06T17:36:31.885Z,99645.84
2023-03-06T17:39:00.830Z,99645.63
2023-03-06T17:41:29.714Z,99635.28
2023-03-06T17:43:58.448Z,99635.97
2023-03-06T17:46:26.332Z,99631.44
2023-03-06T17:48:55.196Z,99619.03
2023-03-06T17:51:23.366Z,99625.44
2023-03-06T17:53:52.258Z,99630.38
2023-03-06T17:56:20.123Z,99621.47
2023-03-06T17:58:48.099Z,99618.09
2023-03-06T18:01:19.551Z,99624.69
2023-03-06T18:03:49.385Z,99609.22
2023-03-06T18:06:18.130Z,99619.84
2023-03-06T18:08:46.627Z,99623.31
2023-03-06T18:11:15.606Z,99625.44
2023-03-06T18:13:44.569Z,99626.34
2023-03-06T18:16:15.390Z,99629.25
2023-03-06T18:18:43.963Z,99638.22
2023-03-06T18:21:14.058Z,99633.75
2023-03-06T18:23:41.937Z,99632.72
2023-03-06T18:26:12.711Z,99640.53
2023-03-06T18:28:45.655Z,99631.94
2023-03-06T18:31:21.754Z,99633.63
2023-03-06T18:33:50.914Z,99638.00
2023-03-06T18:36:19.152Z,99641.25
2023-03-06T18:38:48.080Z,99632.34
2023-03-06T18:41:17.209Z,99626.87
2023-03-06T18:43:45.507Z,99627.56
2023-03-06T18:46:13.126Z,99617.16
2023-03-06T18:48:40.665Z,99618.53
2023-03-06T18:51:10.517Z,99615.84
2023-03-06T18:53:40.113Z,99601.84
2023-03-06T18:56:10.780Z,99609.41
2023-03-06T18:58:38.686Z,99604.09
2023-03-06T19:01:07.389Z,99605.09
2023-03-06T19:03:35.662Z,99597.47
2023-03-06T19:06:09.173Z,99601.03
2023-03-06T19:08:38.337Z,99602.97
2023-03-06T19:11:11.374Z,99604.13
2023-03-06T19:13:39.635Z,99611.34
2023-03-06T19:16:08.213Z,99609.47
2023-03-06T19:18:36.229Z,99606.50
2023-03-06T19:21:12.674Z,99609.03
2023-03-06T19:23:41.220Z,99616.16
2023-03-06T19:26:10.405Z,99611.78
2023-03-06T19:28:40.669Z,99628.94
2023-03-06T19:31:19.509Z,99632.69
2023-03-06T19:33:48.934Z,99637.47
2023-03-06T19:36:18.499Z,99644.44
2023-03-06T19:38:52.644Z,99649.31
2023-03-06T19:41:21.616Z,99640.75
2023-03-06T19:43:53.746Z,99639.28
2023-03-06T19:46:22.451Z,99644.50
2023-03-06T19:49:14.124Z,99634.97
2023-03-06T19:51:42.231Z,99634.19
2023-03-06T19:54:13.979Z,99639.50
2023-03-06T19:56:42.514Z,99638.53
2023-03-06T19:59:10.434Z,99633.84
2023-03-06T20:01:39.674Z,99639.88
2023-03-06T20:04:08.321Z,99645.44
2023-03-06T20:06:37.689Z,99649.00
2023-03-06T20:09:08.342Z,99653.38
2023-03-06T20:11:36.461Z,99652.03
2023-03-06T20:14:06.460Z,99652.16
2023-03-06T20:16:35.040Z,99649.94
2023-03-06T20:19:03.960Z,99656.81
2023-03-06T20:21:35.310Z,99659.13
2023-03-06T20:24:04.262Z,99651.84
2023-03-06T20:26:34.149Z,99657.91
2023-03-06T20:29:02.338Z,99653.72
2023-03-06T20:31:30.935Z,99652.75
2023-03-06T20:33:59.599Z,99649.41
2023-03-06T20:36:36.246Z,99650.91
2023-03-06T20:39:09.056Z,99653.72
2023-03-06T20:41:37.114Z,99647.06
2023-03-06T20:44:07.038Z,99638.19
2023-03-06T20:46:35.522Z,99624.03
2023-03-06T20:49:03.824Z,99614.16
2023-03-06T20:51:36.159Z,99602.75
2023-03-06T20:54:04.356Z,99612.75
2023-03-06T20:56:34.005Z,99611.50
2023-03-06T20:59:02.646Z,99616.97
2023-03-06T21:01:33.223Z,99604.41
2023-03-06T21:04:02.360Z,99596.28
2023-03-06T21:06:30.708Z,99598.34
2023-03-06T21:09:00.034Z,99599.69
2023-03-06T21:11:28.472Z,99596.06
2023-03-06T21:13:56.497Z,99596.94
2023-03-06T21:16:25.877Z,99605.37
2023-03-06T21:18:54.860Z,99608.06
2023-03-06T21:21:25.535Z,99610.16
2023-03-06T21:23:54.331Z,99604.94
2023-03-06T21:26:24.337Z,99612.37
2023-03-06T21:28:51.903Z,99631.28
2023-03-06T21:31:20.767Z,99618.94
2023-03-06T21:33:49.860Z,99615.28
2023-03-06T21:36:19.334Z,99620.25
2023-03-06T21:38:47.623Z,99615.69
2023-03-06T21:41:20.165Z,99625.72
2023-03-06T21:43:47.727Z,99632.41
2023-03-06T21:46:15.638Z,99631.22
2023-03-06T21:48:43.221Z,99644.91
2023-03-06T21:51:19.128Z,99640.72
2023-03-06T21:53:48.175Z,99629.72
2023-03-06T21:56:17.594Z,99636.63
2023-03-06T21:58:45.619Z,99633.75
2023-03-06T22:01:17.679Z,99619.06
2023-03-06T22:03:45.999Z,99625.50
2023-03-06T22:06:16.382Z,99641.91
2023-03-06T22:08:44.047Z,99636.16
2023-03-06T22:11:15.387Z,99639.38
2023-03-06T22:13:43.270Z,99644.00
2023-03-06T22:16:11.409Z,99645.63
2023-03-06T22:18:39.925Z,99632.78
2023-03-06T22:21:12.398Z,99649.56
2023-03-06T22:23:43.373Z,99637.56
2023-03-06T22:26:14.362Z,99652.22
2023-03-06T22:28:42.454Z,99665.97
2023-03-06T22:31:12.649Z,99671.28
2023-03-06T22:33:40.699Z,99659.00
2023-03-06T22:36:10.920Z,99662.06
2023-03-06T22:38:40.706Z,99675.50
2023-03-06T22:41:09.367Z,99671.13
2023-03-06T22:43:37.340Z,99669.50
2023-03-06T22:46:07.830Z,99673.25
2023-03-06T22:48:35.781Z,99676.62
2023-03-06T22:51:07.733Z,99659.00
2023-03-06T22:53:35.934Z,99652.00
2023-03-06T22:56:05.535Z,99651.34
2023-03-06T22:58:36.951Z,99650.16
2023-03-06T23:01:06.149Z,99649.34
2023-03-06T23:03:35.747Z,99656.13
2023-03-06T23:06:08.816Z,99649.22
2023-03-06T23:08:36.866Z,99654.06
2023-03-06T23:11:12.039Z,99662.81
2023-03-06T23:13:58.586Z,99664.97
2023-03-06T23:16:44.637Z,99655.22
2023-03-06T23:19:31.178Z,99656.00
2023-03-06T23:22:17.229Z,99656.41
2023-03-06T23:25:03.040Z,99659.78
2023-03-06T23:27:30.884Z,99655.25
2023-03-06T23:29:59.204Z,99659.47
2023-03-06T23:32:26.864Z,99658.50
2023-03-06T23:34:54.879Z,99649.94
2023-03-06T23:37:22.479Z,99656.72
2023-03-06T23:39:50.132Z,99658.37
2023-03-06T23:42:18.023Z,99657.37
2023-03-06T23:44:45.727Z,99654.00
2023-03-06T23:47:13.265Z,99654.75
2023-03-06T23:49:41.170Z,99660.09
2023-03-06T23:52:08.847Z,99657.16
2023-03-06T23:54:36.641Z,99661.88
2023-03-06T23:57:04.405Z,99664.34
2023-03-06T23:59:32.117Z,99656.41
